Time,TemperatureF,DewpointF,PressureIn,WindDirection,WindDirectionDegrees,WindSpeedMPH,WindSpeedGustMPH,Humidity,HourlyPrecipIn,Conditions,Clouds,dailyrainin,SoftwareType,DateUTC
2013-10-03 00:01:00,56.7,56.1,29.94,West,270,0.0,-999.0,98,-99.99,,,0.00,Acu-Link.com,2013-10-03 04:01:00,
2013-10-03 00:16:00,56.3,55.7,29.93,West,270,0.0,-999.0,98,-99.99,,,0.00,Acu-Link.com,2013-10-03 04:16:00,
2013-10-03 00:31:00,56.1,55.5,29.94,SSE,157,0.0,-999.0,98,-99.99,,,0.00,Acu-Link.com,2013-10-03 04:31:00,
2013-10-03 00:46:00,55.6,55.0,29.94,SW,225,0.0,-999.0,98,-99.99,,,0.00,Acu-Link.com,2013-10-03 04:46:00,
2013-10-03 01:02:00,54.9,54.3,29.95,SSW,202,0.0,-999.0,98,-99.99,,,0.00,Acu-Link.com,2013-10-03 05:02:00,
2013-10-03 01:20:00,54.9,54.3,29.95,SSW,202,0.0,-999.0,98,-99.99,,,0.00,Acu-Link.com,2013-10-03 05:20:00,
2013-10-03 01:37:00,54.7,54.1,29.95,SSW,202,0.0,-999.0,98,-99.99,,,0.00,Acu-Link.com,2013-10-03 05:37:00,
2013-10-03 02:01:00,54.3,53.7,29.95,South,180,0.0,-999.0,98,-99.99,,,0.00,Acu-Link.com,2013-10-03 06:01:00,
2013-10-03 02:25:00,54.1,53.5,29.96,WNW,292,0.0,-999.0,98,-99.99,,,0.00,Acu-Link.com,2013-10-03 06:25:00,
2013-10-03 02:41:00,53.6,53.0,29.95,SW,225,0.0,-999.0,98,-99.99,,,0.00,Acu-Link.com,2013-10-03 06:41:00,
2013-10-03 02:57:00,53.2,52.6,29.96,SW,225,0.0,-999.0,98,-99.99,,,0.00,Acu-Link.com,2013-10-03 06:57:00,
2013-10-03 03:14:00,53.1,52.5,29.96,SW,225,0.0,-999.0,98,-99.99,,,0.00,Acu-Link.com,2013-10-03 07:14:00,
2013-10-03 03:42:00,53.8,53.2,29.95,ESE,112,0.0,-999.0,98,-99.99,,,0.00,Acu-Link.com,2013-10-03 07:42:00,
2013-10-03 04:07:00,54.5,53.9,29.95,West,270,0.0,-999.0,98,-99.99,,,0.00,Acu-Link.com,2013-10-03 08:07:00,
2013-10-03 04:25:00,55.4,54.8,29.96,SSE,157,0.0,-999.0,98,-99.99,,,0.00,Acu-Link.com,2013-10-03 08:25:00,
2013-10-03 04:51:00,55.4,54.8,29.95,SW,225,0.0,-999.0,98,-99.99,,,0.00,Acu-Link.com,2013-10-03 08:51:00,
2013-10-03 05:10:00,55.8,55.2,29.96,South,180,0.0,-999.0,98,-99.99,,,0.00,Acu-Link.com,2013-10-03 09:10:00,
2013-10-03 05:28:00,55.9,55.3,29.96,NW,315,0.0,-999.0,98,-99.99,,,0.00,Acu-Link.com,2013-10-03 09:28:00,
2013-10-03 05:55:00,55.9,55.3,29.99,SW,225,0.0,-999.0,98,-99.99,,,0.00,Acu-Link.com,2013-10-03 09:55:00,
2013-10-03 06:10:00,55.6,55.0,29.98,ESE,112,0.0,-999.0,98,-99.99,,,0.00,Acu-Link.com,2013-10-03 10:10:00,
2013-10-03 06:27:00,55.6,55.0,29.99,WSW,247,0.0,-999.0,98,-99.99,,,0.00,Acu-Link.com,2013-10-03 10:27:00,
2013-10-03 06:51:00,55.6,55.0,30.01,NE,45,0.0,-999.0,98,-99.99,,,0.00,Acu-Link.com,2013-10-03 10:51:00,
2013-10-03 07:08:00,55.2,54.6,30.01,SSE,157,0.0,-999.0,98,-99.99,,,0.00,Acu-Link.com,2013-10-03 11:08:00,
2013-10-03 07:23:00,55.2,54.6,30.01,SSE,157,0.0,-999.0,98,-99.99,,,0.00,Acu-Link.com,2013-10-03 11:23:00,
2013-10-03 07:42:00,55.2,54.6,30.01,SSE,157,0.0,-999.0,98,-99.99,,,0.00,Acu-Link.com,2013-10-03 11:42:00,
2013-10-03 11:17:00,69.6,64.2,30.00,West,270,2.2,-999.0,83,-99.99,,,0.00,Acu-Link.com,2013-10-03 15:17:00,
2013-10-03 11:36:00,70.7,64.9,30.00,ESE,112,1.7,-999.0,82,-99.99,,,0.00,Acu-Link.com,2013-10-03 15:36:00,
2013-10-03 12:00:00,70.7,64.9,29.98,SSE,157,4.2,-999.0,82,-99.99,,,0.00,Acu-Link.com,2013-10-03 16:00:00,
2013-10-03 12:19:00,70.7,64.9,29.96,South,180,2.2,-999.0,82,-99.99,,,0.00,Acu-Link.com,2013-10-03 16:19:00,
2013-10-03 12:48:00,78.1,66.7,29.96,ESE,112,1.7,-999.0,68,-99.99,,,0.00,Acu-Link.com,2013-10-03 16:48:00,
2013-10-03 13:05:00,77.4,66.4,29.95,ESE,112,2.2,-999.0,69,-99.99,,,0.00,Acu-Link.com,2013-10-03 17:05:00,
2013-10-03 13:39:00,78.3,66.8,29.93,ESE,112,1.7,-999.0,68,-99.99,,,0.00,Acu-Link.com,2013-10-03 17:39:00,
2013-10-03 13:57:00,79.2,68.1,29.92,SSW,202,2.2,-999.0,69,-99.99,,,0.00,Acu-Link.com,2013-10-03 17:57:00,
2013-10-03 14:12:00,78.6,67.6,29.91,ESE,112,1.7,-999.0,69,-99.99,,,0.00,Acu-Link.com,2013-10-03 18:12:00,
2013-10-03 14:29:00,80.1,69.0,29.91,West,270,1.1,-999.0,69,-99.99,,,0.00,Acu-Link.com,2013-10-03 18:29:00,
2013-10-03 14:52:00,80.1,69.0,29.90,SW,225,2.7,-999.0,69,-99.99,,,0.00,Acu-Link.com,2013-10-03 18:52:00,
2013-10-03 15:08:00,80.1,69.0,29.90,West,270,2.2,-999.0,69,-99.99,,,0.00,Acu-Link.com,2013-10-03 19:08:00,
2013-10-03 15:23:00,80.4,69.3,29.89,ESE,112,2.2,-999.0,69,-99.99,,,0.00,Acu-Link.com,2013-10-03 19:23:00,
2013-10-03 15:39:00,81.0,69.4,29.89,SSE,157,2.2,-999.0,68,-99.99,,,0.00,Acu-Link.com,2013-10-03 19:39:00,
2013-10-03 16:05:00,80.6,69.0,29.88,SSW,202,2.7,-999.0,68,-99.99,,,0.00,Acu-Link.com,2013-10-03 20:05:00,
2013-10-03 16:54:00,80.6,69.0,29.87,South,180,1.7,-999.0,68,-99.99,,,0.00,Acu-Link.com,2013-10-03 20:54:00,
2013-10-03 17:50:00,78.8,68.2,29.88,South,180,0.0,-999.0,70,-99.99,,,0.00,Acu-Link.com,2013-10-03 21:50:00,
2013-10-03 18:14:00,77.4,68.0,29.88,ESE,112,0.0,-999.0,73,-99.99,,,0.00,Acu-Link.com,2013-10-03 22:14:00,
2013-10-03 18:29:00,76.3,67.4,29.88,SE,135,0.0,-999.0,74,-99.99,,,0.00,Acu-Link.com,2013-10-03 22:29:00,
2013-10-03 18:44:00,75.2,67.5,29.88,South,180,0.0,-999.0,77,-99.99,,,0.00,Acu-Link.com,2013-10-03 22:44:00,
2013-10-03 18:59:00,74.5,67.5,29.87,East,90,0.0,-999.0,79,-99.99,,,0.00,Acu-Link.com,2013-10-03 22:59:00,
2013-10-03 19:14:00,73.6,67.0,29.87,ESE,112,0.0,-999.0,80,-99.99,,,0.00,Acu-Link.com,2013-10-03 23:14:00,
2013-10-03 19:29:00,73.2,67.7,29.87,East,90,0.0,-999.0,83,-99.99,,,0.00,Acu-Link.com,2013-10-03 23:29:00,
2013-10-03 19:44:00,72.7,67.6,29.87,North,0,0.0,-999.0,84,-99.99,,,0.00,Acu-Link.com,2013-10-03 23:44:00,
2013-10-03 19:59:00,72.1,67.3,29.87,South,180,0.0,-999.0,85,-99.99,,,0.00,Acu-Link.com,2013-10-03 23:59:00,
2013-10-03 20:14:00,71.6,67.5,29.87,East,90,0.0,-999.0,87,-99.99,,,0.00,Acu-Link.com,2013-10-04 00:14:00,
2013-10-03 20:30:00,70.5,66.8,29.87,NNE,22,0.0,-999.0,88,-99.99,,,0.00,Acu-Link.com,2013-10-04 00:30:00,
2013-10-03 20:45:00,69.6,66.9,29.88,West,270,0.0,-999.0,91,-99.99,,,0.00,Acu-Link.com,2013-10-04 00:45:00,
2013-10-03 21:00:00,68.4,66.3,29.89,SE,135,0.0,-999.0,93,-99.99,,,0.00,Acu-Link.com,2013-10-04 01:00:00,
2013-10-03 21:15:00,67.8,66.3,29.89,West,270,0.0,-999.0,95,-99.99,,,0.00,Acu-Link.com,2013-10-04 01:15:00,
2013-10-03 21:30:00,67.1,65.9,29.89,South,180,0.0,-999.0,96,-99.99,,,0.00,Acu-Link.com,2013-10-04 01:30:00,
2013-10-03 21:45:00,66.2,65.6,29.89,SE,135,0.0,-999.0,98,-99.99,,,0.00,Acu-Link.com,2013-10-04 01:45:00,
2013-10-03 22:00:00,65.7,65.1,29.89,South,180,0.0,-999.0,98,-99.99,,,0.00,Acu-Link.com,2013-10-04 02:00:00,
2013-10-03 22:15:00,65.1,64.5,29.89,South,180,0.0,-999.0,98,-99.99,,,0.00,Acu-Link.com,2013-10-04 02:15:00,
2013-10-03 22:30:00,64.9,64.3,29.89,NE,45,0.0,-999.0,98,-99.99,,,0.00,Acu-Link.com,2013-10-04 02:30:00,
2013-10-03 22:46:00,64.8,64.2,29.90,West,270,0.0,-999.0,98,-99.99,,,0.00,Acu-Link.com,2013-10-04 02:46:00,
2013-10-03 23:01:00,64.4,63.8,29.90,West,270,0.0,-999.0,98,-99.99,,,0.00,Acu-Link.com,2013-10-04 03:01:00,
2013-10-03 23:16:00,64.0,63.4,29.89,South,180,0.0,-999.0,98,-99.99,,,0.00,Acu-Link.com,2013-10-04 03:16:00,
2013-10-03 23:31:00,63.7,63.1,29.90,South,180,0.0,-999.0,98,-99.99,,,0.00,Acu-Link.com,2013-10-04 03:31:00,
2013-10-03 23:46:00,63.7,63.1,29.89,WSW,247,0.0,-999.0,98,-99.99,,,0.00,Acu-Link.com,2013-10-04 03:46:00,